DW2380 Paimio FI current weather conditions

sailwx.info

Wind from 360

Air temperature -3.9° C
Dewpoint -5.7° C

Last reported at 2017-Apr-28 00:04 UTC.
Time now 2017-Apr-28 00:30 UTC

Location: N 60°28' E 022°40'.
View on Google Maps.

See reports from other nearby stations

  
Tides and Currents Weather Stations Pressure Air Temp Water Temp Dewpoint Dewpoint Depression Visibility Wind Speed Wind Dir Waves Ship Positions
date/time (UTC)wind fromknots sea level pressurealtimeterstation pressurevisibilityair tempwater tempwave heightnotes
2017-Apr-28 00:04 360 -3.9
2017-Apr-27 23:49 360 -3.9
2017-Apr-27 23:34 360 -3.9
2017-Apr-27 23:19 360 -3.9
2017-Apr-27 23:03 360 -3.3
2017-Apr-27 22:48 360 -3.3
2017-Apr-27 22:33 360 -2.8
2017-Apr-27 22:18 360 -2.8
2017-Apr-27 22:03 360 -2.2
2017-Apr-27 21:47 360 -2.2
2017-Apr-27 21:32 360 -2.2
2017-Apr-27 21:17 360 -1.7
2017-Apr-27 21:02 360 -1.7
2017-Apr-27 20:47 360 -1.1
2017-Apr-27 20:32 360 -1.1
2017-Apr-27 20:17 360 -0.6
2017-Apr-27 20:01 360 -0.0
2017-Apr-27 19:46 360 0.6
2017-Apr-27 19:31 360 1.1
2017-Apr-27 19:16 360 2.2
2017-Apr-27 19:01 360 3.3
2017-Apr-27 18:46 360 3.9
2017-Apr-27 18:31 360 4.4
2017-Apr-27 18:17 360 0 gusting 2 5.0
2017-Apr-27 18:01 360 1 gusting 3 5.0
2017-Apr-27 17:46 360 2 gusting 6 5.6
2017-Apr-27 17:31 360 5 gusting 10 6.1
2017-Apr-27 17:14 360 6 gusting 12 6.7
2017-Apr-27 16:59 360 7 gusting 13 6.7
2017-Apr-27 16:44 360 8 gusting 13 7.2
2017-Apr-27 16:29 360 9 gusting 15 7.8
2017-Apr-27 16:14 360 7 gusting 13 7.8
2017-Apr-27 15:59 360 2 gusting 4 7.2
2017-Apr-27 15:44 360 2 gusting 12 7.2
2017-Apr-27 15:13 360 8 gusting 13 8.3
2017-Apr-27 14:58 360 9 gusting 14 8.9
2017-Apr-27 14:43 360 8 gusting 13 8.9
2017-Apr-27 14:28 360 8 gusting 13 9.4
2017-Apr-27 14:13 360 10 gusting 16 9.4
2017-Apr-27 13:57 360 6 gusting 15 10.0
2017-Apr-27 13:42 360 9 gusting 17 9.4
2017-Apr-27 13:27 360 10 gusting 17 8.9
2017-Apr-27 13:13 360 6 gusting 13 8.3
2017-Apr-27 12:57 360 8.3
2017-Apr-27 12:42 360 4 gusting 13 10.0
2017-Apr-27 12:27 360 7 gusting 15 10.0
2017-Apr-27 12:11 360 8 gusting 16 10.0
2017-Apr-27 11:56 360 11 gusting 19 10.0
2017-Apr-27 11:41 360 8 gusting 18 9.4
2017-Apr-27 11:26 360 13 gusting 19 9.4
2017-Apr-27 11:11 360 9 gusting 16 8.9
2017-Apr-27 10:41 360 12 gusting 18 8.9
2017-Apr-27 10:26 360 12 gusting 17 8.9
2017-Apr-27 10:11 360 10 gusting 17 8.9
2017-Apr-27 09:56 360 10 gusting 15 8.9
2017-Apr-27 09:41 360 10 gusting 14 8.9
2017-Apr-27 09:25 360 7 gusting 16 10.0
2017-Apr-27 09:09 360 11 gusting 17 9.4
2017-Apr-27 08:54 360 8 gusting 13 9.4
2017-Apr-27 08:39 360 6 gusting 13 8.9
2017-Apr-27 08:24 360 9 gusting 16 8.9
2017-Apr-27 08:09 360 6 gusting 12 8.3
2017-Apr-27 07:54 360 9 gusting 13 7.8
2017-Apr-27 07:38 360 7 gusting 13 7.8
2017-Apr-27 07:23 360 5 gusting 9 7.2
2017-Apr-27 07:08 360 6 gusting 10 6.7
2017-Apr-27 06:53 360 5 gusting 9 6.1
2017-Apr-27 06:37 360 5 gusting 10 5.6
2017-Apr-27 06:22 360 6 gusting 10 5.0
2017-Apr-27 06:07 360 6 gusting 10 4.4
2017-Apr-27 05:52 360 4 gusting 8 3.9
2017-Apr-27 05:37 360 5 gusting 7 3.3
2017-Apr-27 05:22 360 4 gusting 8 2.8
2017-Apr-27 05:06 360 4 gusting 7 2.2
2017-Apr-27 04:51 360 2 gusting 5 1.1
2017-Apr-27 04:36 360 0 gusting 3 0.6
2017-Apr-27 04:21 360 2 gusting 5 -0.0
2017-Apr-27 04:06 360 2 gusting 3 -0.6
2017-Apr-27 03:51 360 -1.1
2017-Apr-27 03:36 360 1 gusting 3 -1.1
2017-Apr-27 03:21 360 -1.1
2017-Apr-27 03:06 360 0 gusting 2 -1.7
2017-Apr-27 02:51 360 -1.7
2017-Apr-27 02:36 360 1 gusting 2 -1.1
2017-Apr-27 02:19 360 -0.6
2017-Apr-27 02:04 360 -0.6
2017-Apr-27 01:49 360 -0.0
2017-Apr-27 01:34 360 2 gusting 5 -0.0
2017-Apr-27 01:19 360 2 gusting 6 -0.6
2017-Apr-27 01:04 360 2 gusting 5 -0.6
2017-Apr-27 00:48 360 2 gusting 5 -0.6
2017-Apr-27 00:33 360 1 gusting 6 -0.6
2017-Apr-27 00:18 360 3 gusting 6 -0.0
2017-Apr-27 00:03 360 2 gusting 5 -0.0
2017-Apr-26 23:48 360 2 gusting 5 -0.0
2017-Apr-26 23:33 360 2 gusting 6 -0.0
2017-Apr-26 23:18 360 1 gusting 4 -0.0
2017-Apr-26 23:02 360 0 gusting 3 -0.0
2017-Apr-26 22:47 360 1 gusting 5 0.6
2017-Apr-26 22:32 360 1 gusting 4 0.6
2017-Apr-26 22:17 360 2 gusting 5 0.6
2017-Apr-26 22:02 360 3 gusting 6 0.6
2017-Apr-26 21:46 360 1 gusting 6 1.1
2017-Apr-26 21:31 360 4 gusting 8 1.1
2017-Apr-26 21:16 360 6 gusting 10 1.1
2017-Apr-26 21:01 360 3 gusting 8 1.1
2017-Apr-26 20:46 360 4 gusting 7 1.1
2017-Apr-26 20:31 360 4 gusting 8 1.1
2017-Apr-26 20:16 360 4 gusting 8 1.7
2017-Apr-26 20:01 360 5 gusting 8 1.7
2017-Apr-26 19:46 360 6 gusting 9 1.7
2017-Apr-26 19:31 360 5 gusting 8 1.7
2017-Apr-26 19:17 360 5 gusting 7 2.2
2017-Apr-26 19:01 360 4 gusting 7 2.2
2017-Apr-26 18:46 360 5 gusting 12 2.8
2017-Apr-26 18:31 360 6 gusting 11 2.8
2017-Apr-26 18:14 360 9 gusting 13 3.3
2017-Apr-26 17:59 360 5 gusting 14 3.3
2017-Apr-26 17:44 360 7 gusting 15 3.9
2017-Apr-26 17:29 360 7 gusting 12 3.9
2017-Apr-26 17:14 360 9 gusting 14 3.9
2017-Apr-26 16:59 360 9 gusting 14 3.9
2017-Apr-26 16:44 360 10 gusting 16 3.9
2017-Apr-26 16:28 360 9 gusting 16 4.4
2017-Apr-26 16:13 360 9 gusting 15 3.9
2017-Apr-26 15:58 360 7 gusting 11 3.3
2017-Apr-26 15:43 360 6 gusting 16 3.9
2017-Apr-26 15:28 360 7 gusting 13 4.4
2017-Apr-26 15:13 360 10 gusting 17 5.0
2017-Apr-26 14:57 360 6 gusting 12 5.6
2017-Apr-26 14:42 360 8 gusting 16 5.6
2017-Apr-26 14:27 360 11 gusting 17 5.0
2017-Apr-26 14:12 360 9 gusting 20 5.6
2017-Apr-26 13:57 360 10 gusting 17 6.1
2017-Apr-26 13:42 360 13 gusting 23 5.6
2017-Apr-26 13:27 360 13 gusting 19 5.0
2017-Apr-26 13:11 360 12 gusting 20 5.6
2017-Apr-26 12:56 360 13 gusting 23 6.1
2017-Apr-26 12:41 360 11 gusting 19 5.6
2017-Apr-26 12:26 360 10 gusting 16 5.6
2017-Apr-26 12:11 360 7 gusting 15 5.0
2017-Apr-26 11:56 360 8 gusting 18 5.6
2017-Apr-26 11:41 360 6 gusting 19 5.0
2017-Apr-26 11:26 360 10 gusting 19 6.1
2017-Apr-26 11:11 360 9 gusting 21 7.2
2017-Apr-26 10:56 360 9 gusting 15 7.2
2017-Apr-26 10:41 360 13 gusting 24 7.2
2017-Apr-26 10:24 360 11 gusting 19 6.1
2017-Apr-26 10:09 360 7 gusting 18 5.6
2017-Apr-26 09:54 360 9 gusting 20 6.1
2017-Apr-26 09:39 360 7 gusting 16 6.1
2017-Apr-26 09:24 360 7 gusting 19 6.1
2017-Apr-26 09:09 360 8 gusting 19 6.7
2017-Apr-26 08:54 360 13 gusting 19 7.2
2017-Apr-26 08:39 360 4 gusting 11 6.1
2017-Apr-26 08:23 360 4 gusting 10 6.1
2017-Apr-26 08:08 360 5 gusting 9 5.6
2017-Apr-26 07:53 360 2 gusting 7 5.0
2017-Apr-26 07:38 360 4 gusting 6 3.9
2017-Apr-26 07:23 360 3.9
2017-Apr-26 07:07 360 0 gusting 2 3.3
2017-Apr-26 06:52 360 3.3
2017-Apr-26 06:37 360 2.8
2017-Apr-26 06:22 360 2.2
2017-Apr-26 06:07 360 1.7
2017-Apr-26 05:52 360 1.7
2017-Apr-26 05:36 360 1.1
2017-Apr-26 05:21 360 0 gusting 4 1.1
2017-Apr-26 05:06 360 0.6
2017-Apr-26 04:52 360 -0.0
2017-Apr-26 04:36 360 -1.1
2017-Apr-26 04:21 360 -1.7
2017-Apr-26 04:06 360 -2.2
2017-Apr-26 03:51 360 -2.2
2017-Apr-26 03:36 360 -2.2
2017-Apr-26 03:23 360 -2.8
2017-Apr-26 03:07 360 -2.8
2017-Apr-26 02:49 360 -2.8
2017-Apr-26 02:34 360 -3.3
2017-Apr-26 02:19 360 -3.3
2017-Apr-26 02:04 360 -3.3
2017-Apr-26 01:49 360 -3.3
2017-Apr-26 01:34 360 -3.3
2017-Apr-26 01:18 360 -2.8
2017-Apr-26 01:03 360 -2.8
2017-Apr-26 00:48 360 -2.8
2017-Apr-26 00:33 360 -2.2
2017-Apr-26 00:18 360 -2.2
2017-Apr-26 00:03 360 -2.2